createdAt,value
2018-12-18T00:00:51.933Z,2.60
2018-12-18T00:03:20.508Z,2.60
2018-12-18T00:05:48.949Z,2.60
2018-12-18T00:08:17.242Z,2.50
2018-12-18T00:10:49.853Z,2.60
2018-12-18T00:13:18.179Z,2.60
2018-12-18T00:15:46.555Z,2.60
2018-12-18T00:18:15.085Z,2.60
2018-12-18T00:20:43.451Z,2.60
2018-12-18T00:23:18.177Z,2.70
2018-12-18T00:25:46.391Z,2.70
2018-12-18T00:28:14.837Z,2.60
2018-12-18T00:30:43.333Z,2.60
2018-12-18T00:33:11.708Z,2.60
2018-12-18T00:35:40.050Z,2.70
2018-12-18T00:38:08.467Z,2.70
2018-12-18T00:40:36.852Z,2.70
2018-12-18T00:43:05.117Z,2.70
2018-12-18T00:45:33.607Z,2.60
2018-12-18T00:48:02.167Z,2.70
2018-12-18T00:50:30.470Z,2.60
2018-12-18T00:52:58.792Z,2.70
2018-12-18T00:55:27.246Z,2.70
2018-12-18T00:57:55.858Z,2.70
2018-12-18T01:00:24.187Z,2.70
2018-12-18T01:02:52.542Z,2.70
2018-12-18T01:05:21.127Z,2.70
2018-12-18T01:07:53.320Z,2.70
2018-12-18T01:10:19.788Z,2.80
2018-12-18T01:12:48.166Z,2.90
2018-12-18T01:15:16.563Z,2.90
2018-12-18T01:17:44.921Z,2.80
2018-12-18T01:20:13.266Z,2.80
2018-12-18T01:22:43.274Z,2.80
2018-12-18T01:25:11.769Z,2.80
2018-12-18T01:27:40.039Z,2.80
2018-12-18T01:30:08.709Z,2.80
2018-12-18T01:32:37.148Z,2.80
2018-12-18T01:35:05.751Z,2.90
2018-12-18T01:37:33.959Z,2.90
2018-12-18T01:40:02.237Z,2.90
2018-12-18T01:42:30.624Z,2.90
2018-12-18T01:44:58.935Z,2.90
2018-12-18T01:47:27.279Z,3.00
2018-12-18T01:49:55.625Z,3.00
2018-12-18T01:52:23.971Z,3.00
2018-12-18T01:54:52.303Z,3.00
2018-12-18T01:57:20.899Z,3.00
2018-12-18T01:59:49.114Z,3.00
2018-12-18T02:02:17.531Z,3.00
2018-12-18T02:04:45.888Z,3.00
2018-12-18T02:07:14.308Z,3.10
2018-12-18T02:09:42.722Z,3.10
2018-12-18T02:12:11.071Z,3.00
2018-12-18T02:14:39.272Z,3.10
2018-12-18T02:17:07.448Z,3.10
2018-12-18T02:19:35.634Z,3.10
2018-12-18T02:22:03.972Z,3.10
2018-12-18T02:24:32.225Z,3.10
2018-12-18T02:27:00.456Z,3.10
2018-12-18T02:29:28.784Z,3.10
2018-12-18T02:31:57.042Z,3.10
2018-12-18T02:34:25.310Z,3.10
2018-12-18T02:36:53.551Z,3.20
2018-12-18T02:39:21.842Z,3.10
2018-12-18T02:41:50.042Z,3.20
2018-12-18T02:44:18.184Z,3.10
2018-12-18T02:46:46.358Z,3.10
2018-12-18T02:49:14.714Z,3.20
2018-12-18T02:51:42.900Z,3.20
2018-12-18T02:54:11.080Z,3.20
2018-12-18T02:56:39.356Z,3.20
2018-12-18T02:59:07.700Z,3.20
2018-12-18T03:01:36.103Z,3.20
2018-12-18T03:04:04.483Z,3.20
2018-12-18T03:06:32.738Z,3.30
2018-12-18T03:09:00.917Z,3.20
2018-12-18T03:11:29.166Z,3.20
2018-12-18T03:13:57.378Z,3.20
2018-12-18T03:16:25.616Z,3.20
2018-12-18T03:18:53.888Z,3.20
2018-12-18T03:21:22.149Z,3.20
2018-12-18T03:23:50.411Z,3.20
2018-12-18T03:26:18.820Z,3.30
2018-12-18T03:28:47.178Z,3.30
2018-12-18T03:31:15.398Z,3.20
2018-12-18T03:33:43.644Z,3.20
2018-12-18T03:36:11.856Z,3.20
2018-12-18T03:38:40.041Z,3.20
2018-12-18T03:41:08.329Z,3.20
2018-12-18T03:43:36.598Z,3.20
2018-12-18T03:46:04.909Z,3.10
2018-12-18T03:48:33.152Z,3.20
2018-12-18T03:51:01.420Z,3.20
2018-12-18T03:53:29.687Z,3.20
2018-12-18T03:55:57.924Z,3.20
2018-12-18T03:58:26.329Z,3.20
2018-12-18T04:00:54.709Z,3.20
2018-12-18T04:03:23.168Z,3.20
2018-12-18T04:05:51.721Z,3.20
2018-12-18T04:08:19.964Z,3.20
2018-12-18T04:10:48.203Z,3.20
2018-12-18T04:13:16.419Z,3.20
2018-12-18T04:15:44.759Z,3.20
2018-12-18T04:18:12.999Z,3.20
2018-12-18T04:20:41.178Z,3.20
2018-12-18T04:23:09.389Z,3.20
2018-12-18T04:25:37.663Z,3.20
2018-12-18T04:28:05.968Z,3.20
2018-12-18T04:30:34.261Z,3.20
2018-12-18T04:33:02.603Z,3.20
2018-12-18T04:35:30.753Z,3.20
2018-12-18T04:37:58.956Z,3.20
2018-12-18T04:40:27.407Z,3.30
2018-12-18T04:42:55.611Z,3.20
2018-12-18T04:45:23.855Z,3.20
2018-12-18T04:47:52.015Z,3.20
2018-12-18T04:50:20.872Z,3.20
2018-12-18T04:52:49.278Z,3.20
2018-12-18T04:55:17.668Z,3.20
2018-12-18T04:57:45.969Z,3.20
2018-12-18T05:00:14.267Z,3.20
2018-12-18T05:02:42.732Z,3.20
2018-12-18T05:05:11.004Z,3.20
2018-12-18T05:07:39.414Z,3.20
2018-12-18T05:10:07.649Z,3.20
2018-12-18T05:12:35.862Z,3.30
2018-12-18T05:15:04.524Z,3.20
2018-12-18T05:17:32.745Z,3.30
2018-12-18T05:20:00.991Z,3.30
2018-12-18T05:22:29.254Z,3.30
2018-12-18T05:24:57.529Z,3.30
2018-12-18T05:27:25.707Z,3.30
2018-12-18T05:29:53.949Z,3.20
2018-12-18T05:32:22.262Z,3.20
2018-12-18T05:34:56.391Z,3.20
2018-12-18T05:37:21.132Z,3.20
2018-12-18T05:39:49.338Z,3.30
2018-12-18T05:42:17.618Z,3.30
2018-12-18T05:44:45.855Z,3.30
2018-12-18T05:47:14.135Z,3.30
2018-12-18T05:49:42.269Z,3.40
2018-12-18T05:52:10.603Z,3.40
2018-12-18T05:54:38.758Z,3.40
2018-12-18T05:57:06.955Z,3.40
2018-12-18T05:59:35.257Z,3.50
2018-12-18T06:02:03.579Z,3.50
2018-12-18T06:04:31.812Z,3.50
2018-12-18T06:07:00.109Z,3.50
2018-12-18T06:09:28.467Z,3.50
2018-12-18T06:11:56.744Z,3.60
2018-12-18T06:14:25.077Z,3.60
2018-12-18T06:16:53.278Z,3.60
2018-12-18T06:19:21.526Z,3.60
2018-12-18T06:21:49.719Z,3.60
2018-12-18T06:24:17.985Z,3.60
2018-12-18T06:26:46.215Z,3.60
2018-12-18T06:29:16.927Z,3.60
2018-12-18T06:31:45.302Z,3.60
2018-12-18T06:34:13.512Z,3.60
2018-12-18T06:36:41.752Z,3.60
2018-12-18T06:39:10.090Z,3.60
2018-12-18T06:41:38.595Z,3.60
2018-12-18T06:44:06.983Z,3.60
2018-12-18T06:46:35.332Z,3.60
2018-12-18T06:49:03.530Z,3.60
2018-12-18T06:51:31.780Z,3.60
2018-12-18T06:54:00.032Z,3.60
2018-12-18T06:56:28.251Z,3.70
2018-12-18T06:58:56.518Z,3.70
2018-12-18T07:01:24.786Z,3.70
2018-12-18T07:03:53.032Z,3.70
2018-12-18T07:06:21.290Z,3.70
2018-12-18T07:08:49.648Z,3.70
2018-12-18T07:11:17.869Z,3.70
2018-12-18T07:13:46.130Z,3.70
2018-12-18T07:16:14.390Z,3.70
2018-12-18T07:18:42.738Z,3.70
2018-12-18T07:21:10.941Z,3.60
2018-12-18T07:23:39.186Z,3.70
2018-12-18T07:26:07.374Z,3.70
2018-12-18T07:28:35.541Z,3.70
2018-12-18T07:31:03.942Z,3.70
2018-12-18T07:33:32.121Z,3.70
2018-12-18T07:36:00.659Z,3.70
2018-12-18T07:38:28.897Z,3.80
2018-12-18T07:40:57.147Z,3.80
2018-12-18T07:43:25.408Z,3.80
2018-12-18T07:45:53.719Z,3.80
2018-12-18T07:48:22.015Z,3.80
2018-12-18T07:50:50.483Z,3.80
2018-12-18T07:53:18.721Z,3.80
2018-12-18T07:55:47.013Z,3.80
2018-12-18T07:58:15.233Z,3.80
2018-12-18T08:00:43.579Z,3.80
2018-12-18T08:03:12.401Z,3.90
2018-12-18T08:05:40.747Z,3.90
2018-12-18T08:08:09.115Z,3.90
2018-12-18T08:10:37.329Z,3.80
2018-12-18T08:13:05.626Z,3.90
2018-12-18T08:15:33.977Z,3.90
2018-12-18T08:18:02.238Z,3.90
2018-12-18T08:20:30.711Z,3.90
2018-12-18T08:22:58.937Z,3.90
2018-12-18T08:25:27.154Z,3.90
2018-12-18T08:27:55.525Z,3.90
2018-12-18T08:30:23.993Z,3.90
2018-12-18T08:32:52.277Z,3.90
2018-12-18T08:35:20.513Z,4.00
2018-12-18T08:37:48.763Z,4.00
2018-12-18T08:40:16.975Z,4.00
2018-12-18T08:42:45.179Z,4.00
2018-12-18T08:45:13.449Z,4.00
2018-12-18T08:47:41.755Z,4.10
2018-12-18T08:50:10.158Z,4.10
2018-12-18T08:52:38.343Z,4.10
2018-12-18T08:55:07.027Z,4.20
2018-12-18T08:57:35.483Z,4.20
2018-12-18T09:00:04.179Z,4.30
2018-12-18T09:02:32.469Z,4.30
2018-12-18T09:05:00.739Z,4.30
2018-12-18T09:07:28.933Z,4.40
2018-12-18T09:09:57.187Z,4.40
2018-12-18T09:12:25.548Z,4.40
2018-12-18T09:14:57.129Z,4.40
2018-12-18T09:17:31.963Z,4.50
2018-12-18T09:20:00.379Z,4.50
2018-12-18T09:22:28.613Z,4.50
2018-12-18T09:24:56.913Z,4.50
2018-12-18T09:27:25.156Z,4.60
2018-12-18T09:29:53.371Z,4.60
2018-12-18T09:32:21.626Z,4.70
2018-12-18T09:34:49.873Z,4.70
2018-12-18T09:37:18.095Z,4.70
2018-12-18T09:39:48.255Z,4.80
2018-12-18T09:42:21.981Z,4.80
2018-12-18T09:44:50.170Z,4.80
2018-12-18T09:47:18.479Z,4.80
2018-12-18T09:49:46.751Z,4.90
2018-12-18T09:52:15.134Z,4.90
2018-12-18T09:54:43.385Z,5.00
2018-12-18T09:57:17.139Z,4.90
2018-12-18T09:59:45.387Z,4.90
2018-12-18T10:02:13.744Z,4.90
2018-12-18T10:04:41.997Z,5.00
2018-12-18T10:07:10.193Z,5.00
2018-12-18T10:09:38.453Z,5.20
2018-12-18T10:12:06.719Z,5.10
2018-12-18T10:14:34.923Z,5.10
2018-12-18T10:17:03.312Z,5.20
2018-12-18T10:19:31.529Z,5.20
2018-12-18T10:21:59.881Z,5.40
2018-12-18T10:24:28.185Z,5.40
2018-12-18T10:26:56.415Z,5.40
2018-12-18T10:29:24.784Z,5.40
2018-12-18T10:31:53.189Z,5.40
2018-12-18T10:34:21.349Z,5.40
2018-12-18T10:36:49.635Z,5.30
2018-12-18T10:39:17.860Z,5.40
2018-12-18T10:41:46.191Z,5.40
2018-12-18T10:44:14.373Z,5.40
2018-12-18T10:46:42.660Z,5.50
2018-12-18T10:49:10.801Z,5.60
2018-12-18T10:51:38.990Z,5.70
2018-12-18T10:54:07.501Z,5.70
2018-12-18T10:56:35.814Z,5.70
2018-12-18T10:59:04.142Z,5.60
2018-12-18T11:01:37.922Z,5.50
2018-12-18T11:04:06.204Z,5.60
2018-12-18T11:06:34.612Z,5.60
2018-12-18T11:09:03.501Z,5.70
2018-12-18T11:11:32.006Z,5.70
2018-12-18T11:14:00.309Z,5.80
2018-12-18T11:16:28.603Z,5.80
2018-12-18T11:18:56.905Z,5.80
2018-12-18T11:21:25.234Z,5.80
2018-12-18T11:23:53.656Z,5.80
2018-12-18T11:26:21.960Z,5.90
2018-12-18T11:28:50.153Z,6.00
2018-12-18T11:31:18.498Z,6.00
2018-12-18T11:33:46.780Z,6.10
2018-12-18T11:36:16.671Z,6.00
2018-12-18T11:38:45.296Z,6.10
2018-12-18T11:41:13.558Z,6.20
2018-12-18T11:43:41.858Z,6.40
2018-12-18T11:46:10.159Z,6.50
2018-12-18T11:48:38.455Z,6.60
2018-12-18T11:51:06.694Z,6.80
2018-12-18T11:53:34.898Z,6.80
2018-12-18T11:56:03.222Z,6.80
2018-12-18T11:58:31.455Z,6.70
2018-12-18T12:00:59.788Z,6.60
2018-12-18T12:03:28.049Z,6.40
2018-12-18T12:05:56.336Z,6.20
2018-12-18T12:08:24.664Z,6.00
2018-12-18T12:10:52.934Z,5.80
2018-12-18T12:13:21.232Z,5.80
2018-12-18T12:15:49.480Z,5.70
2018-12-18T12:18:17.734Z,5.70
2018-12-18T12:20:46.204Z,5.60
2018-12-18T12:23:14.420Z,5.60
2018-12-18T12:25:42.754Z,5.70
2018-12-18T12:28:10.958Z,5.70
2018-12-18T12:30:39.144Z,5.80
2018-12-18T12:33:07.488Z,6.00
2018-12-18T12:35:35.980Z,6.40
2018-12-18T12:38:04.194Z,6.90
2018-12-18T12:40:32.516Z,7.20
2018-12-18T12:43:00.698Z,7.80
2018-12-18T12:45:29.506Z,8.00
2018-12-18T12:47:59.564Z,8.20
2018-12-18T12:50:27.923Z,8.30
2018-12-18T12:52:56.244Z,8.40
2018-12-18T12:55:24.616Z,8.50
2018-12-18T12:57:52.854Z,8.50
2018-12-18T13:00:21.190Z,8.60
2018-12-18T13:02:49.380Z,8.90
2018-12-18T13:05:17.595Z,8.90
2018-12-18T13:07:45.911Z,8.90
2018-12-18T13:10:14.102Z,8.60
2018-12-18T13:12:42.328Z,8.40
2018-12-18T13:15:10.501Z,8.20
2018-12-18T13:17:38.702Z,7.90
2018-12-18T13:20:07.263Z,7.80
2018-12-18T13:22:35.551Z,7.60
2018-12-18T13:25:04.337Z,7.60
2018-12-18T13:27:32.639Z,7.50
2018-12-18T13:30:01.432Z,7.40
2018-12-18T13:32:29.702Z,7.30
2018-12-18T13:34:58.063Z,7.30
2018-12-18T13:37:26.329Z,7.10
2018-12-18T13:39:54.615Z,6.90
2018-12-18T13:42:22.831Z,6.80
2018-12-18T13:44:51.113Z,6.60
2018-12-18T13:47:19.449Z,6.60
2018-12-18T13:49:47.656Z,6.40
2018-12-18T13:52:15.865Z,6.30
2018-12-18T13:54:44.050Z,6.20
2018-12-18T13:57:12.269Z,6.10
2018-12-18T13:59:40.487Z,6.00
2018-12-18T14:02:08.847Z,6.00
2018-12-18T14:04:37.056Z,6.00
2018-12-18T14:07:05.499Z,5.90
2018-12-18T14:09:33.700Z,5.90
2018-12-18T14:12:01.936Z,6.00
2018-12-18T14:14:30.189Z,5.90
2018-12-18T14:16:58.825Z,5.90
2018-12-18T14:19:27.037Z,5.90
2018-12-18T14:21:55.401Z,5.90
2018-12-18T14:24:23.747Z,5.80
2018-12-18T14:26:51.979Z,5.80
2018-12-18T14:29:20.643Z,5.80
2018-12-18T14:31:48.857Z,5.80
2018-12-18T14:34:17.058Z,5.70
2018-12-18T14:36:45.383Z,5.70
2018-12-18T14:39:14.503Z,5.60
2018-12-18T14:41:42.854Z,5.50
2018-12-18T14:44:11.048Z,5.40
2018-12-18T14:46:39.326Z,5.40
2018-12-18T14:49:07.646Z,5.30
2018-12-18T14:51:35.886Z,5.30
2018-12-18T14:54:04.278Z,5.20
2018-12-18T14:56:32.551Z,5.10
2018-12-18T14:59:00.932Z,5.10
2018-12-18T15:01:29.126Z,5.10
2018-12-18T15:03:57.596Z,5.10
2018-12-18T15:06:26.264Z,5.10
2018-12-18T15:08:54.508Z,5.10
2018-12-18T15:11:23.044Z,5.00
2018-12-18T15:13:51.431Z,5.00
2018-12-18T15:16:19.851Z,4.90
2018-12-18T15:18:48.187Z,4.80
2018-12-18T15:21:16.497Z,4.70
2018-12-18T15:23:44.743Z,4.50
2018-12-18T15:26:13.149Z,4.50
2018-12-18T15:28:41.520Z,4.40
2018-12-18T15:31:09.753Z,4.40
2018-12-18T15:33:38.025Z,4.40
2018-12-18T15:36:06.429Z,4.40
2018-12-18T15:38:34.839Z,4.40
2018-12-18T15:41:03.067Z,4.30
2018-12-18T15:43:31.352Z,4.30
2018-12-18T15:45:59.711Z,4.30
2018-12-18T15:48:28.081Z,4.30
2018-12-18T15:50:56.471Z,4.20
2018-12-18T15:53:24.788Z,4.20
2018-12-18T15:55:53.064Z,4.20
2018-12-18T15:58:21.344Z,4.10
2018-12-18T16:00:49.625Z,4.10
2018-12-18T16:03:17.883Z,4.10
2018-12-18T16:05:46.119Z,4.10
2018-12-18T16:08:14.457Z,4.10
2018-12-18T16:10:42.744Z,4.00
2018-12-18T16:13:11.128Z,4.00
2018-12-18T16:15:39.533Z,4.00
2018-12-18T16:18:07.779Z,4.10
2018-12-18T16:20:36.084Z,4.10
2018-12-18T16:23:04.380Z,4.10
2018-12-18T16:25:32.573Z,4.10
2018-12-18T16:28:00.762Z,4.10
2018-12-18T16:30:28.987Z,4.00
2018-12-18T16:32:57.231Z,4.00
2018-12-18T16:35:25.482Z,3.90
2018-12-18T16:37:53.760Z,3.90
2018-12-18T16:40:22.004Z,3.90
2018-12-18T16:42:50.221Z,3.90
2018-12-18T16:45:18.561Z,3.80
2018-12-18T16:47:46.804Z,3.70
2018-12-18T16:50:15.005Z,3.70
2018-12-18T16:52:43.209Z,3.70
2018-12-18T16:55:11.531Z,3.60
2018-12-18T16:57:39.738Z,3.60
2018-12-18T17:00:10.010Z,3.50
2018-12-18T17:02:38.402Z,3.50
2018-12-18T17:05:08.009Z,3.50
2018-12-18T17:07:36.390Z,3.40
2018-12-18T17:10:05.608Z,3.40
2018-12-18T17:12:33.939Z,3.40
2018-12-18T17:15:02.326Z,3.50
2018-12-18T17:17:30.699Z,3.40
2018-12-18T17:19:58.923Z,3.50
2018-12-18T17:22:27.151Z,3.40
2018-12-18T17:24:55.497Z,3.40
2018-12-18T17:27:23.805Z,3.40
2018-12-18T17:29:52.190Z,3.40
2018-12-18T17:32:20.568Z,3.30
2018-12-18T17:34:48.825Z,3.30
2018-12-18T17:37:17.294Z,3.20
2018-12-18T17:39:45.648Z,3.20
2018-12-18T17:42:14.151Z,3.20
2018-12-18T17:44:42.615Z,3.20
2018-12-18T17:47:10.914Z,3.10
2018-12-18T17:49:39.210Z,3.10
2018-12-18T17:52:07.632Z,3.10
2018-12-18T17:54:35.881Z,3.00
2018-12-18T17:57:04.284Z,3.00
2018-12-18T17:59:32.504Z,2.90
2018-12-18T18:02:00.950Z,2.90
2018-12-18T18:04:29.550Z,2.90
2018-12-18T18:06:57.882Z,2.90
2018-12-18T18:09:26.142Z,2.80
2018-12-18T18:11:54.492Z,2.80
2018-12-18T18:14:22.676Z,2.80
2018-12-18T18:16:50.996Z,2.80
2018-12-18T18:19:19.234Z,2.70
2018-12-18T18:21:47.541Z,2.70
2018-12-18T18:24:15.833Z,2.70
2018-12-18T18:26:44.042Z,2.70
2018-12-18T18:29:12.480Z,2.70
2018-12-18T18:31:40.824Z,2.60
2018-12-18T18:34:09.128Z,2.60
2018-12-18T18:36:38.487Z,2.60
2018-12-18T18:39:08.175Z,2.60
2018-12-18T18:41:36.488Z,2.60
2018-12-18T18:44:04.943Z,2.50
2018-12-18T18:46:33.351Z,2.50
2018-12-18T18:49:01.592Z,2.50
2018-12-18T18:51:29.937Z,2.50
2018-12-18T18:53:58.214Z,2.50
2018-12-18T18:56:26.964Z,2.40
2018-12-18T18:58:55.484Z,2.40
2018-12-18T19:01:23.892Z,2.40
2018-12-18T19:03:52.534Z,2.40
2018-12-18T19:06:20.907Z,2.30
2018-12-18T19:08:49.199Z,2.30
2018-12-18T19:11:17.583Z,2.30
2018-12-18T19:13:46.214Z,2.30
2018-12-18T19:19:04.340Z,2.30
2018-12-18T19:21:32.808Z,2.40
2018-12-18T19:24:01.160Z,2.40
2018-12-18T19:26:29.928Z,2.30
2018-12-18T19:28:58.320Z,2.30
2018-12-18T19:31:27.158Z,2.30
2018-12-18T19:33:55.581Z,2.30
2018-12-18T19:36:25.503Z,2.40
2018-12-18T19:38:54.410Z,2.30
2018-12-18T19:41:22.772Z,2.40
2018-12-18T19:43:51.214Z,2.40
2018-12-18T19:46:19.535Z,2.50
2018-12-18T19:48:47.894Z,2.40
2018-12-18T19:51:16.543Z,2.30
2018-12-18T19:53:44.965Z,2.30
2018-12-18T19:56:14.392Z,2.30
2018-12-18T19:58:42.946Z,2.30
2018-12-18T20:01:11.492Z,2.20
2018-12-18T20:03:39.946Z,2.20
2018-12-18T20:06:10.458Z,2.20
2018-12-18T20:08:38.774Z,2.20
2018-12-18T20:11:07.242Z,2.10
2018-12-18T20:13:35.622Z,2.10
2018-12-18T20:16:04.194Z,2.20
2018-12-18T20:18:32.585Z,2.10
2018-12-18T20:21:11.313Z,2.10
2018-12-18T20:23:41.829Z,2.00
2018-12-18T20:26:11.130Z,2.00
2018-12-18T20:28:39.406Z,2.00
2018-12-18T20:31:07.803Z,2.00
2018-12-18T20:33:36.289Z,2.00
2018-12-18T20:36:04.822Z,1.90
2018-12-18T20:38:33.498Z,1.90
2018-12-18T20:41:01.878Z,1.90
2018-12-18T20:43:30.221Z,1.90
2018-12-18T20:46:04.250Z,1.90
2018-12-18T20:48:32.804Z,1.80
2018-12-18T20:51:01.251Z,1.70
2018-12-18T20:53:30.224Z,1.70
2018-12-18T20:55:59.223Z,1.70
2018-12-18T20:58:27.593Z,1.60
2018-12-18T21:00:56.060Z,1.60
2018-12-18T21:03:24.647Z,1.50
2018-12-18T21:05:54.301Z,1.50
2018-12-18T21:08:23.516Z,1.50
2018-12-18T21:10:52.261Z,1.50
2018-12-18T21:13:29.408Z,1.40
2018-12-18T21:16:03.185Z,1.50
2018-12-18T21:18:31.845Z,1.50
2018-12-18T21:21:00.398Z,1.40
2018-12-18T21:26:08.716Z,1.30
2018-12-18T21:28:37.067Z,1.30
2018-12-18T21:31:05.591Z,1.30
2018-12-18T21:33:34.382Z,1.20
2018-12-18T21:36:03.448Z,1.20
2018-12-18T21:41:18.519Z,1.10
2018-12-18T21:43:46.812Z,1.10
2018-12-18T21:46:15.331Z,1.10
2018-12-18T21:48:43.789Z,1.00
2018-12-18T21:51:12.181Z,0.90
2018-12-18T21:53:40.612Z,0.90
2018-12-18T21:56:08.913Z,0.90
2018-12-18T21:58:37.163Z,0.90
2018-12-18T22:01:05.489Z,0.90
2018-12-18T22:03:33.858Z,0.80
2018-12-18T22:06:02.119Z,0.80
2018-12-18T22:08:36.716Z,0.80
2018-12-18T22:11:01.055Z,0.80
2018-12-18T22:13:29.366Z,0.70
2018-12-18T22:15:57.679Z,0.70
2018-12-18T22:18:26.079Z,0.70
2018-12-18T22:20:54.518Z,0.60
2018-12-18T22:23:22.789Z,0.60
2018-12-18T22:25:51.157Z,0.60
2018-12-18T22:28:19.550Z,0.60
2018-12-18T22:33:41.113Z,0.60
2018-12-18T22:36:09.739Z,0.60
2018-12-18T22:38:43.678Z,0.60
2018-12-18T22:41:09.359Z,0.60
2018-12-18T22:43:37.721Z,0.50
2018-12-18T22:46:06.178Z,0.50
2018-12-18T22:48:34.557Z,0.50
2018-12-18T22:51:05.105Z,0.50
2018-12-18T22:53:33.505Z,0.50
2018-12-18T22:56:02.090Z,0.40
2018-12-18T22:58:30.703Z,0.40
2018-12-18T23:01:02.159Z,0.40
2018-12-18T23:03:30.607Z,0.40
2018-12-18T23:05:58.978Z,0.40
2018-12-18T23:08:27.888Z,0.40
2018-12-18T23:10:56.336Z,0.30
2018-12-18T23:13:24.748Z,0.40
2018-12-18T23:15:53.065Z,0.30
2018-12-18T23:18:21.489Z,0.30
2018-12-18T23:20:49.986Z,0.30
2018-12-18T23:23:18.924Z,0.30
2018-12-18T23:25:47.318Z,0.30
2018-12-18T23:28:15.756Z,0.30
2018-12-18T23:30:44.100Z,0.20
2018-12-18T23:33:12.476Z,0.20
2018-12-18T23:35:41.152Z,0.20
2018-12-18T23:38:09.508Z,0.20
2018-12-18T23:40:37.887Z,0.20
2018-12-18T23:43:06.289Z,0.20
2018-12-18T23:45:34.722Z,0.20
2018-12-18T23:48:03.322Z,0.20
2018-12-18T23:50:31.870Z,0.10
2018-12-18T23:53:00.216Z,0.10
2018-12-18T23:55:28.964Z,0.20
2018-12-18T23:57:57.446Z,0.20
